sensor_id;sensor_type;location;lat;lon;timestamp;P1;durP1;ratioP1;P2;durP2;ratioP2
25868;SDS011;13688;53.154;18.136;2024-01-15T00:02:08;9.65;;;6.62;;
25868;SDS011;13688;53.154;18.136;2024-01-15T00:07:33;9.08;;;6.00;;
25868;SDS011;13688;53.154;18.136;2024-01-15T00:12:56;8.25;;;6.60;;
25868;SDS011;13688;53.154;18.136;2024-01-15T00:18:19;10.35;;;7.12;;
25868;SDS011;13688;53.154;18.136;2024-01-15T00:23:44;8.75;;;6.60;;
25868;SDS011;13688;53.154;18.136;2024-01-15T00:29:07;10.55;;;7.45;;
25868;SDS011;13688;53.154;18.136;2024-01-15T00:34:30;10.40;;;7.35;;
25868;SDS011;13688;53.154;18.136;2024-01-15T00:39:52;12.10;;;8.25;;
25868;SDS011;13688;53.154;18.136;2024-01-15T00:45:15;10.60;;;7.65;;
25868;SDS011;13688;53.154;18.136;2024-01-15T00:50:38;9.68;;;7.17;;
25868;SDS011;13688;53.154;18.136;2024-01-15T00:56:03;10.13;;;7.37;;
25868;SDS011;13688;53.154;18.136;2024-01-15T01:01:25;11.33;;;8.30;;
25868;SDS011;13688;53.154;18.136;2024-01-15T01:06:51;9.45;;;7.30;;
25868;SDS011;13688;53.154;18.136;2024-01-15T01:12:15;10.13;;;7.35;;
25868;SDS011;13688;53.154;18.136;2024-01-15T01:17:38;10.00;;;7.22;;
25868;SDS011;13688;53.154;18.136;2024-01-15T01:23:00;9.50;;;7.03;;
25868;SDS011;13688;53.154;18.136;2024-01-15T01:28:23;9.25;;;6.90;;
25868;SDS011;13688;53.154;18.136;2024-01-15T01:33:45;9.38;;;7.28;;
25868;SDS011;13688;53.154;18.136;2024-01-15T01:39:10;9.48;;;6.97;;
25868;SDS011;13688;53.154;18.136;2024-01-15T01:44:34;9.08;;;6.53;;
25868;SDS011;13688;53.154;18.136;2024-01-15T01:49:56;9.68;;;6.78;;
25868;SDS011;13688;53.154;18.136;2024-01-15T01:55:20;9.90;;;6.50;;
25868;SDS011;13688;53.154;18.136;2024-01-15T02:00:45;10.88;;;7.20;;
25868;SDS011;13688;53.154;18.136;2024-01-15T02:06:11;9.15;;;6.65;;
25868;SDS011;13688;53.154;18.136;2024-01-15T02:11:36;9.58;;;6.70;;
25868;SDS011;13688;53.154;18.136;2024-01-15T02:17:00;8.73;;;6.55;;
25868;SDS011;13688;53.154;18.136;2024-01-15T02:22:25;9.88;;;6.10;;
25868;SDS011;13688;53.154;18.136;2024-01-15T02:27:50;9.05;;;6.28;;
25868;SDS011;13688;53.154;18.136;2024-01-15T02:33:13;9.35;;;6.50;;
25868;SDS011;13688;53.154;18.136;2024-01-15T02:38:36;9.85;;;6.67;;
25868;SDS011;13688;53.154;18.136;2024-01-15T02:44:00;9.58;;;6.20;;
25868;SDS011;13688;53.154;18.136;2024-01-15T02:49:23;8.93;;;6.50;;
25868;SDS011;13688;53.154;18.136;2024-01-15T02:54:45;9.85;;;6.90;;
25868;SDS011;13688;53.154;18.136;2024-01-15T03:00:08;9.65;;;6.33;;
25868;SDS011;13688;53.154;18.136;2024-01-15T03:05:32;8.45;;;6.17;;
25868;SDS011;13688;53.154;18.136;2024-01-15T03:10:56;9.03;;;6.20;;
25868;SDS011;13688;53.154;18.136;2024-01-15T03:16:20;7.10;;;5.28;;
25868;SDS011;13688;53.154;18.136;2024-01-15T03:21:42;10.78;;;6.50;;
25868;SDS011;13688;53.154;18.136;2024-01-15T03:27:07;10.18;;;6.45;;
25868;SDS011;13688;53.154;18.136;2024-01-15T03:32:32;11.15;;;7.30;;
25868;SDS011;13688;53.154;18.136;2024-01-15T03:37:54;11.55;;;7.25;;
25868;SDS011;13688;53.154;18.136;2024-01-15T03:43:17;12.07;;;8.20;;
25868;SDS011;13688;53.154;18.136;2024-01-15T03:48:40;11.73;;;7.85;;
25868;SDS011;13688;53.154;18.136;2024-01-15T03:54:03;10.80;;;8.10;;
25868;SDS011;13688;53.154;18.136;2024-01-15T03:59:26;13.93;;;8.78;;
25868;SDS011;13688;53.154;18.136;2024-01-15T04:04:51;12.55;;;7.30;;
25868;SDS011;13688;53.154;18.136;2024-01-15T04:10:16;11.22;;;7.92;;
25868;SDS011;13688;53.154;18.136;2024-01-15T04:15:40;12.82;;;8.15;;
25868;SDS011;13688;53.154;18.136;2024-01-15T04:21:05;13.88;;;8.63;;
25868;SDS011;13688;53.154;18.136;2024-01-15T04:26:29;12.47;;;7.58;;
25868;SDS011;13688;53.154;18.136;2024-01-15T04:31:54;12.28;;;7.70;;
25868;SDS011;13688;53.154;18.136;2024-01-15T04:37:18;9.50;;;6.15;;
25868;SDS011;13688;53.154;18.136;2024-01-15T04:42:43;10.18;;;6.45;;
25868;SDS011;13688;53.154;18.136;2024-01-15T04:48:07;10.10;;;5.80;;
25868;SDS011;13688;53.154;18.136;2024-01-15T04:53:31;8.60;;;4.20;;
25868;SDS011;13688;53.154;18.136;2024-01-15T04:58:55;7.03;;;3.80;;
25868;SDS011;13688;53.154;18.136;2024-01-15T05:04:21;6.15;;;3.92;;
25868;SDS011;13688;53.154;18.136;2024-01-15T05:09:47;7.58;;;4.50;;
25868;SDS011;13688;53.154;18.136;2024-01-15T05:15:11;7.37;;;4.03;;
25868;SDS011;13688;53.154;18.136;2024-01-15T05:20:35;9.78;;;4.85;;
25868;SDS011;13688;53.154;18.136;2024-01-15T05:26:00;6.28;;;3.42;;
25868;SDS011;13688;53.154;18.136;2024-01-15T05:31:23;7.55;;;3.45;;
25868;SDS011;13688;53.154;18.136;2024-01-15T05:36:48;8.63;;;3.20;;
25868;SDS011;13688;53.154;18.136;2024-01-15T05:42:13;6.50;;;3.02;;
25868;SDS011;13688;53.154;18.136;2024-01-15T05:47:36;5.75;;;2.62;;
25868;SDS011;13688;53.154;18.136;2024-01-15T05:53:03;12.05;;;3.37;;
25868;SDS011;13688;53.154;18.136;2024-01-15T05:58:27;8.03;;;2.67;;
25868;SDS011;13688;53.154;18.136;2024-01-15T06:03:52;8.75;;;2.72;;
25868;SDS011;13688;53.154;18.136;2024-01-15T06:09:16;7.80;;;2.62;;
25868;SDS011;13688;53.154;18.136;2024-01-15T06:14:42;8.05;;;2.25;;
25868;SDS011;13688;53.154;18.136;2024-01-15T06:20:06;6.95;;;2.08;;
25868;SDS011;13688;53.154;18.136;2024-01-15T06:25:31;5.72;;;2.30;;
25868;SDS011;13688;53.154;18.136;2024-01-15T06:30:55;6.55;;;2.77;;
25868;SDS011;13688;53.154;18.136;2024-01-15T06:36:21;5.90;;;2.70;;
25868;SDS011;13688;53.154;18.136;2024-01-15T06:41:44;7.15;;;3.02;;
25868;SDS011;13688;53.154;18.136;2024-01-15T06:47:09;6.35;;;3.50;;
25868;SDS011;13688;53.154;18.136;2024-01-15T06:52:32;6.75;;;3.27;;
25868;SDS011;13688;53.154;18.136;2024-01-15T06:57:57;8.23;;;4.12;;
25868;SDS011;13688;53.154;18.136;2024-01-15T07:03:20;10.45;;;4.35;;
25868;SDS011;13688;53.154;18.136;2024-01-15T07:08:46;8.85;;;4.20;;
25868;SDS011;13688;53.154;18.136;2024-01-15T07:14:12;11.60;;;5.08;;
25868;SDS011;13688;53.154;18.136;2024-01-15T07:19:37;8.73;;;4.03;;
25868;SDS011;13688;53.154;18.136;2024-01-15T07:25:01;9.25;;;4.30;;
25868;SDS011;13688;53.154;18.136;2024-01-15T07:30:26;9.03;;;4.10;;
25868;SDS011;13688;53.154;18.136;2024-01-15T07:35:51;9.90;;;4.65;;
25868;SDS011;13688;53.154;18.136;2024-01-15T07:41:14;13.62;;;4.70;;
25868;SDS011;13688;53.154;18.136;2024-01-15T07:46:38;10.38;;;5.00;;
25868;SDS011;13688;53.154;18.136;2024-01-15T07:52:03;9.48;;;4.92;;
25868;SDS011;13688;53.154;18.136;2024-01-15T07:57:27;10.75;;;4.80;;
25868;SDS011;13688;53.154;18.136;2024-01-15T08:02:52;10.48;;;5.37;;
25868;SDS011;13688;53.154;18.136;2024-01-15T08:08:15;7.97;;;4.58;;
25868;SDS011;13688;53.154;18.136;2024-01-15T08:13:38;11.22;;;4.90;;
25868;SDS011;13688;53.154;18.136;2024-01-15T08:19:00;9.33;;;4.30;;
25868;SDS011;13688;53.154;18.136;2024-01-15T08:24:33;11.43;;;4.53;;
25868;SDS011;13688;53.154;18.136;2024-01-15T08:29:56;10.77;;;5.00;;
25868;SDS011;13688;53.154;18.136;2024-01-15T08:35:20;15.57;;;4.93;;
25868;SDS011;13688;53.154;18.136;2024-01-15T08:40:43;12.07;;;5.10;;
25868;SDS011;13688;53.154;18.136;2024-01-15T08:46:05;12.35;;;4.40;;
25868;SDS011;13688;53.154;18.136;2024-01-15T08:51:28;10.13;;;4.30;;
25868;SDS011;13688;53.154;18.136;2024-01-15T08:56:52;10.50;;;4.90;;
25868;SDS011;13688;53.154;18.136;2024-01-15T09:02:15;9.25;;;4.35;;
25868;SDS011;13688;53.154;18.136;2024-01-15T09:07:38;10.35;;;4.65;;
25868;SDS011;13688;53.154;18.136;2024-01-15T09:13:01;10.00;;;4.40;;
25868;SDS011;13688;53.154;18.136;2024-01-15T09:18:23;11.43;;;4.50;;
25868;SDS011;13688;53.154;18.136;2024-01-15T09:23:46;9.87;;;4.33;;
25868;SDS011;13688;53.154;18.136;2024-01-15T09:29:08;12.03;;;4.15;;
25868;SDS011;13688;53.154;18.136;2024-01-15T09:34:31;8.53;;;4.27;;
25868;SDS011;13688;53.154;18.136;2024-01-15T09:39:54;12.45;;;5.00;;
25868;SDS011;13688;53.154;18.136;2024-01-15T09:45:29;12.17;;;4.23;;
25868;SDS011;13688;53.154;18.136;2024-01-15T09:50:52;8.37;;;4.73;;
25868;SDS011;13688;53.154;18.136;2024-01-15T09:56:16;11.30;;;5.17;;
25868;SDS011;13688;53.154;18.136;2024-01-15T10:01:40;11.18;;;4.40;;
25868;SDS011;13688;53.154;18.136;2024-01-15T10:07:04;10.25;;;3.35;;
25868;SDS011;13688;53.154;18.136;2024-01-15T10:12:29;4.77;;;2.37;;
25868;SDS011;13688;53.154;18.136;2024-01-15T10:17:54;6.27;;;2.50;;
25868;SDS011;13688;53.154;18.136;2024-01-15T10:23:17;7.22;;;3.15;;
25868;SDS011;13688;53.154;18.136;2024-01-15T10:28:42;8.13;;;3.90;;
25868;SDS011;13688;53.154;18.136;2024-01-15T10:34:13;6.97;;;3.10;;
25868;SDS011;13688;53.154;18.136;2024-01-15T10:39:35;7.67;;;2.40;;
25868;SDS011;13688;53.154;18.136;2024-01-15T10:44:58;7.05;;;2.62;;
25868;SDS011;13688;53.154;18.136;2024-01-15T10:50:21;6.62;;;2.58;;
25868;SDS011;13688;53.154;18.136;2024-01-15T10:55:46;6.42;;;2.20;;
25868;SDS011;13688;53.154;18.136;2024-01-15T11:01:09;7.60;;;2.70;;
25868;SDS011;13688;53.154;18.136;2024-01-15T11:06:43;6.33;;;2.72;;
25868;SDS011;13688;53.154;18.136;2024-01-15T11:12:12;6.60;;;2.55;;
25868;SDS011;13688;53.154;18.136;2024-01-15T11:23:36;9.58;;;2.58;;
25868;SDS011;13688;53.154;18.136;2024-01-15T11:29:06;6.00;;;1.83;;
25868;SDS011;13688;53.154;18.136;2024-01-15T11:34:53;4.20;;;1.67;;
25868;SDS011;13688;53.154;18.136;2024-01-15T11:40:20;7.00;;;1.87;;
25868;SDS011;13688;53.154;18.136;2024-01-15T11:45:52;5.87;;;2.20;;
25868;SDS011;13688;53.154;18.136;2024-01-15T11:51:17;5.73;;;2.87;;
25868;SDS011;13688;53.154;18.136;2024-01-15T11:56:40;7.37;;;2.83;;
25868;SDS011;13688;53.154;18.136;2024-01-15T12:02:06;5.33;;;2.33;;
25868;SDS011;13688;53.154;18.136;2024-01-15T12:07:29;6.80;;;1.80;;
25868;SDS011;13688;53.154;18.136;2024-01-15T12:12:57;7.45;;;1.65;;
25868;SDS011;13688;53.154;18.136;2024-01-15T12:23:39;3.55;;;1.35;;
25868;SDS011;13688;53.154;18.136;2024-01-15T12:29:06;2.00;;;0.88;;
25868;SDS011;13688;53.154;18.136;2024-01-15T12:34:29;2.27;;;1.00;;
25868;SDS011;13688;53.154;18.136;2024-01-15T12:39:53;6.42;;;1.50;;
25868;SDS011;13688;53.154;18.136;2024-01-15T12:45:19;3.45;;;1.20;;
25868;SDS011;13688;53.154;18.136;2024-01-15T12:50:42;6.47;;;1.30;;
25868;SDS011;13688;53.154;18.136;2024-01-15T12:56:08;3.47;;;1.32;;
25868;SDS011;13688;53.154;18.136;2024-01-15T13:01:31;9.28;;;1.45;;
25868;SDS011;13688;53.154;18.136;2024-01-15T13:06:55;4.28;;;1.17;;
25868;SDS011;13688;53.154;18.136;2024-01-15T13:12:18;4.30;;;1.12;;
25868;SDS011;13688;53.154;18.136;2024-01-15T13:17:43;2.73;;;1.40;;
25868;SDS011;13688;53.154;18.136;2024-01-15T13:23:06;4.58;;;1.70;;
25868;SDS011;13688;53.154;18.136;2024-01-15T13:28:28;4.42;;;1.30;;
25868;SDS011;13688;53.154;18.136;2024-01-15T13:33:51;3.52;;;1.25;;
25868;SDS011;13688;53.154;18.136;2024-01-15T13:39:14;3.35;;;1.20;;
25868;SDS011;13688;53.154;18.136;2024-01-15T13:44:37;3.08;;;1.07;;
25868;SDS011;13688;53.154;18.136;2024-01-15T13:50:00;4.47;;;1.32;;
25868;SDS011;13688;53.154;18.136;2024-01-15T13:55:26;3.62;;;1.20;;
25868;SDS011;13688;53.154;18.136;2024-01-15T14:00:48;4.00;;;1.00;;
25868;SDS011;13688;53.154;18.136;2024-01-15T14:06:12;5.47;;;1.30;;
25868;SDS011;13688;53.154;18.136;2024-01-15T14:11:34;3.22;;;1.25;;
25868;SDS011;13688;53.154;18.136;2024-01-15T14:16:58;3.52;;;1.10;;
25868;SDS011;13688;53.154;18.136;2024-01-15T14:22:21;3.70;;;1.15;;
25868;SDS011;13688;53.154;18.136;2024-01-15T14:27:45;4.22;;;1.30;;
25868;SDS011;13688;53.154;18.136;2024-01-15T14:33:08;4.53;;;1.62;;
25868;SDS011;13688;53.154;18.136;2024-01-15T14:38:31;3.23;;;1.30;;
25868;SDS011;13688;53.154;18.136;2024-01-15T14:43:54;2.90;;;1.07;;
25868;SDS011;13688;53.154;18.136;2024-01-15T14:49:18;4.33;;;1.40;;
25868;SDS011;13688;53.154;18.136;2024-01-15T14:54:41;3.77;;;1.40;;
25868;SDS011;13688;53.154;18.136;2024-01-15T15:00:05;4.83;;;1.20;;
25868;SDS011;13688;53.154;18.136;2024-01-15T15:05:29;4.62;;;1.32;;
25868;SDS011;13688;53.154;18.136;2024-01-15T15:10:53;2.85;;;1.32;;
25868;SDS011;13688;53.154;18.136;2024-01-15T15:16:17;3.37;;;1.37;;
25868;SDS011;13688;53.154;18.136;2024-01-15T15:21:40;7.78;;;1.67;;
25868;SDS011;13688;53.154;18.136;2024-01-15T15:27:03;5.15;;;1.50;;
25868;SDS011;13688;53.154;18.136;2024-01-15T15:32:27;4.37;;;1.90;;
25868;SDS011;13688;53.154;18.136;2024-01-15T15:37:49;4.90;;;1.30;;
25868;SDS011;13688;53.154;18.136;2024-01-15T15:43:12;3.65;;;1.05;;
25868;SDS011;13688;53.154;18.136;2024-01-15T15:48:34;6.17;;;1.37;;
25868;SDS011;13688;53.154;18.136;2024-01-15T15:53:58;4.10;;;1.05;;
25868;SDS011;13688;53.154;18.136;2024-01-15T15:59:20;4.05;;;1.27;;
25868;SDS011;13688;53.154;18.136;2024-01-15T16:04:42;3.90;;;1.45;;
25868;SDS011;13688;53.154;18.136;2024-01-15T16:10:07;3.62;;;1.10;;
25868;SDS011;13688;53.154;18.136;2024-01-15T16:15:30;4.00;;;1.40;;
25868;SDS011;13688;53.154;18.136;2024-01-15T16:20:53;6.72;;;1.87;;
25868;SDS011;13688;53.154;18.136;2024-01-15T16:26:17;5.03;;;1.25;;
25868;SDS011;13688;53.154;18.136;2024-01-15T16:31:45;4.70;;;1.37;;
25868;SDS011;13688;53.154;18.136;2024-01-15T16:37:08;3.92;;;1.10;;
25868;SDS011;13688;53.154;18.136;2024-01-15T16:42:31;5.05;;;1.10;;
25868;SDS011;13688;53.154;18.136;2024-01-15T16:47:54;4.72;;;0.95;;
25868;SDS011;13688;53.154;18.136;2024-01-15T16:53:20;5.00;;;1.20;;
25868;SDS011;13688;53.154;18.136;2024-01-15T16:58:42;3.30;;;1.10;;
25868;SDS011;13688;53.154;18.136;2024-01-15T17:04:05;3.00;;;1.22;;
25868;SDS011;13688;53.154;18.136;2024-01-15T17:09:27;3.65;;;1.10;;
25868;SDS011;13688;53.154;18.136;2024-01-15T17:14:50;4.22;;;0.95;;
25868;SDS011;13688;53.154;18.136;2024-01-15T17:20:13;3.95;;;1.00;;
25868;SDS011;13688;53.154;18.136;2024-01-15T17:25:36;3.95;;;1.07;;
25868;SDS011;13688;53.154;18.136;2024-01-15T17:30:59;3.75;;;1.00;;
25868;SDS011;13688;53.154;18.136;2024-01-15T17:36:21;4.50;;;0.98;;
25868;SDS011;13688;53.154;18.136;2024-01-15T17:41:44;3.95;;;1.20;;
25868;SDS011;13688;53.154;18.136;2024-01-15T17:47:08;4.05;;;1.02;;
25868;SDS011;13688;53.154;18.136;2024-01-15T17:52:31;5.78;;;1.10;;
25868;SDS011;13688;53.154;18.136;2024-01-15T17:57:53;3.33;;;1.35;;
25868;SDS011;13688;53.154;18.136;2024-01-15T18:03:16;2.27;;;0.90;;
25868;SDS011;13688;53.154;18.136;2024-01-15T18:08:40;4.28;;;0.88;;
25868;SDS011;13688;53.154;18.136;2024-01-15T18:14:03;4.00;;;0.85;;
25868;SDS011;13688;53.154;18.136;2024-01-15T18:19:26;2.35;;;0.88;;
25868;SDS011;13688;53.154;18.136;2024-01-15T18:24:48;2.50;;;1.00;;
25868;SDS011;13688;53.154;18.136;2024-01-15T18:30:11;7.22;;;1.10;;
25868;SDS011;13688;53.154;18.136;2024-01-15T18:35:34;4.75;;;1.15;;
25868;SDS011;13688;53.154;18.136;2024-01-15T18:40:57;2.55;;;1.07;;
25868;SDS011;13688;53.154;18.136;2024-01-15T18:46:21;2.85;;;1.00;;
25868;SDS011;13688;53.154;18.136;2024-01-15T18:51:50;1.82;;;1.00;;
25868;SDS011;13688;53.154;18.136;2024-01-15T18:57:14;5.85;;;1.20;;
25868;SDS011;13688;53.154;18.136;2024-01-15T19:02:37;2.52;;;1.00;;
25868;SDS011;13688;53.154;18.136;2024-01-15T19:08:02;2.00;;;0.85;;
25868;SDS011;13688;53.154;18.136;2024-01-15T19:13:24;2.10;;;0.80;;
25868;SDS011;13688;53.154;18.136;2024-01-15T19:18:50;3.58;;;1.10;;
25868;SDS011;13688;53.154;18.136;2024-01-15T19:24:13;3.70;;;1.10;;
25868;SDS011;13688;53.154;18.136;2024-01-15T19:29:36;2.60;;;0.80;;
25868;SDS011;13688;53.154;18.136;2024-01-15T19:35:00;2.75;;;1.00;;
25868;SDS011;13688;53.154;18.136;2024-01-15T19:40:23;2.30;;;1.10;;
25868;SDS011;13688;53.154;18.136;2024-01-15T19:45:47;2.47;;;1.10;;
25868;SDS011;13688;53.154;18.136;2024-01-15T19:51:10;1.92;;;1.12;;
25868;SDS011;13688;53.154;18.136;2024-01-15T19:56:33;4.33;;;1.00;;
25868;SDS011;13688;53.154;18.136;2024-01-15T20:01:55;1.90;;;1.10;;
25868;SDS011;13688;53.154;18.136;2024-01-15T20:07:18;3.45;;;1.15;;
25868;SDS011;13688;53.154;18.136;2024-01-15T20:12:40;2.75;;;0.90;;
25868;SDS011;13688;53.154;18.136;2024-01-15T20:18:03;3.80;;;1.32;;
25868;SDS011;13688;53.154;18.136;2024-01-15T20:23:26;3.37;;;1.27;;
25868;SDS011;13688;53.154;18.136;2024-01-15T20:28:52;1.75;;;1.00;;
25868;SDS011;13688;53.154;18.136;2024-01-15T20:34:14;2.27;;;0.82;;
25868;SDS011;13688;53.154;18.136;2024-01-15T20:39:38;2.20;;;1.17;;
25868;SDS011;13688;53.154;18.136;2024-01-15T20:45:01;3.12;;;1.45;;
25868;SDS011;13688;53.154;18.136;2024-01-15T20:50:26;2.55;;;0.90;;
25868;SDS011;13688;53.154;18.136;2024-01-15T20:55:48;2.72;;;1.20;;
25868;SDS011;13688;53.154;18.136;2024-01-15T21:01:11;3.85;;;1.37;;
25868;SDS011;13688;53.154;18.136;2024-01-15T21:06:33;3.40;;;1.05;;
25868;SDS011;13688;53.154;18.136;2024-01-15T21:11:56;2.77;;;0.98;;
25868;SDS011;13688;53.154;18.136;2024-01-15T21:17:19;4.12;;;0.98;;
25868;SDS011;13688;53.154;18.136;2024-01-15T21:22:41;4.37;;;1.00;;
25868;SDS011;13688;53.154;18.136;2024-01-15T21:28:04;3.80;;;1.25;;
25868;SDS011;13688;53.154;18.136;2024-01-15T21:33:26;2.62;;;1.10;;
25868;SDS011;13688;53.154;18.136;2024-01-15T21:38:50;2.95;;;1.15;;
25868;SDS011;13688;53.154;18.136;2024-01-15T21:44:15;2.33;;;1.10;;
25868;SDS011;13688;53.154;18.136;2024-01-15T21:49:38;3.75;;;1.32;;
25868;SDS011;13688;53.154;18.136;2024-01-15T21:55:00;4.55;;;1.17;;
25868;SDS011;13688;53.154;18.136;2024-01-15T22:00:23;2.83;;;1.07;;
25868;SDS011;13688;53.154;18.136;2024-01-15T22:05:45;1.92;;;1.05;;
25868;SDS011;13688;53.154;18.136;2024-01-15T22:11:08;2.35;;;1.10;;
25868;SDS011;13688;53.154;18.136;2024-01-15T22:16:30;6.00;;;1.45;;
25868;SDS011;13688;53.154;18.136;2024-01-15T22:21:53;2.47;;;0.85;;
25868;SDS011;13688;53.154;18.136;2024-01-15T22:27:15;2.58;;;0.78;;
25868;SDS011;13688;53.154;18.136;2024-01-15T22:32:37;3.58;;;0.90;;
25868;SDS011;13688;53.154;18.136;2024-01-15T22:38:00;2.15;;;0.98;;
25868;SDS011;13688;53.154;18.136;2024-01-15T22:43:26;1.77;;;0.60;;
25868;SDS011;13688;53.154;18.136;2024-01-15T22:48:49;2.10;;;0.70;;
25868;SDS011;13688;53.154;18.136;2024-01-15T22:54:13;3.02;;;0.60;;
25868;SDS011;13688;53.154;18.136;2024-01-15T22:59:38;1.75;;;0.68;;
25868;SDS011;13688;53.154;18.136;2024-01-15T23:05:03;3.30;;;0.80;;
25868;SDS011;13688;53.154;18.136;2024-01-15T23:10:26;2.35;;;0.53;;
25868;SDS011;13688;53.154;18.136;2024-01-15T23:15:48;1.65;;;0.70;;
25868;SDS011;13688;53.154;18.136;2024-01-15T23:21:12;2.22;;;0.80;;
25868;SDS011;13688;53.154;18.136;2024-01-15T23:26:34;3.37;;;0.78;;
25868;SDS011;13688;53.154;18.136;2024-01-15T23:31:57;4.97;;;0.82;;
25868;SDS011;13688;53.154;18.136;2024-01-15T23:37:20;1.10;;;0.60;;
25868;SDS011;13688;53.154;18.136;2024-01-15T23:42:44;4.62;;;0.90;;
25868;SDS011;13688;53.154;18.136;2024-01-15T23:48:08;4.87;;;0.85;;
25868;SDS011;13688;53.154;18.136;2024-01-15T23:53:31;1.98;;;0.85;;
25868;SDS011;13688;53.154;18.136;2024-01-15T23:58:54;3.83;;;0.98;;
